Time;durP1;ratioP1;P1;durP2;ratioP2;P2;SDS_P1;SDS_P2;PMS_P1;PMS_P2;Temp;Humidity;BMP_temperature;BMP_pressure;BME280_temperature;BME280_humidity;BME280_pressure;Samples;Min_cycle;Max_cycle;Signal;HPM_P1;HPM_P2
2023/06/30 00:02:07;;;;;;;94.80;3.27;;;26.90;24.50;;;;;;4991392;28;20174;-78
2023/06/30 00:04:33;;;;;;;89.53;2.77;;;26.90;24.80;;;;;;4991826;28;20232;-80
2023/06/30 00:06:59;;;;;;;89.60;2.60;;;27.10;24.70;;;;;;4991637;28;20248;-78
2023/06/30 00:09:25;;;;;;;89.90;2.83;;;26.90;25.90;;;;;;4991657;28;20528;-78
2023/06/30 00:11:55;;;;;;;89.83;2.90;;;26.70;26.30;;;;;;4991712;28;20547;-77
2023/06/30 00:14:22;;;;;;;89.33;2.57;;;26.70;26.50;;;;;;4991723;28;20799;-77
2023/06/30 00:16:49;;;;;;;90.03;2.60;;;26.70;26.60;;;;;;4990320;28;20417;-78
2023/06/30 00:19:15;;;;;;;90.00;2.63;;;26.60;27.20;;;;;;4991819;28;20408;-78
2023/06/30 00:21:43;;;;;;;90.40;2.80;;;26.70;26.40;;;;;;4991827;28;20448;-78
2023/06/30 00:24:13;;;;;;;88.87;2.23;;;26.80;25.50;;;;;;4991493;28;20824;-77
2023/06/30 00:26:39;;;;;;;89.67;2.67;;;26.80;26.00;;;;;;4991554;28;20982;-78
2023/06/30 00:29:05;;;;;;;90.70;2.97;;;26.80;25.40;;;;;;4992139;28;20428;-77
2023/06/30 00:31:31;;;;;;;90.27;3.30;;;26.90;25.30;;;;;;4995151;28;20449;-78
2023/06/30 00:33:57;;;;;;;89.70;2.60;;;27.00;25.80;;;;;;4994810;28;20413;-77
2023/06/30 00:36:23;;;;;;;90.10;2.80;;;27.10;25.70;;;;;;4994587;28;20189;-78
2023/06/30 00:38:50;;;;;;;90.27;2.70;;;27.10;25.30;;;;;;4994845;28;20517;-78
2023/06/30 00:41:16;;;;;;;89.27;2.40;;;27.00;25.40;;;;;;4994747;28;20424;-77
2023/06/30 00:43:41;;;;;;;89.80;2.70;;;27.10;25.30;;;;;;4994855;28;20413;-78
2023/06/30 00:46:12;;;;;;;90.87;2.70;;;26.90;26.60;;;;;;4994662;28;20198;-77
2023/06/30 00:48:37;;;;;;;89.43;2.50;;;26.70;26.40;;;;;;4994997;28;20260;-79
2023/06/30 00:51:04;;;;;;;89.63;2.43;;;26.70;26.20;;;;;;4995057;28;20539;-78
2023/06/30 00:53:30;;;;;;;88.97;2.00;;;26.70;26.80;;;;;;4994690;28;20202;-78
2023/06/30 00:55:56;;;;;;;89.60;2.60;;;26.50;27.40;;;;;;4994146;28;20905;-77
2023/06/30 00:58:22;;;;;;;89.47;2.50;;;26.40;27.70;;;;;;4994683;28;20178;-78
2023/06/30 01:00:47;;;;;;;90.10;2.70;;;26.10;27.90;;;;;;4994658;28;20417;-78
2023/06/30 01:03:38;;;;;;;92.80;3.17;;;26.10;28.40;;;;;;4994769;28;20205;-78
2023/06/30 01:06:27;;;;;;;91.57;3.23;;;26.20;28.40;;;;;;4994131;28;20259;-78
2023/06/30 01:09:02;;;;;;;91.17;2.60;;;26.10;28.40;;;;;;4994509;28;20904;-78
2023/06/30 01:11:28;;;;;;;89.90;2.57;;;26.10;28.30;;;;;;4996971;28;20544;-78
2023/06/30 01:13:57;;;;;;;91.33;3.13;;;26.20;29.00;;;;;;4994377;28;20861;-78
2023/06/30 01:16:24;;;;;;;90.27;2.90;;;26.10;29.20;;;;;;4993689;28;20483;-77
2023/06/30 01:18:53;;;;;;;90.57;2.73;;;26.00;29.30;;;;;;4993005;28;20978;-77
2023/06/30 01:21:21;;;;;;;90.97;2.80;;;26.00;29.10;;;;;;4994461;28;20413;-78
2023/06/30 01:24:02;;;;;;;94.10;2.90;;;26.00;29.00;;;;;;4994162;28;20423;-79
2023/06/30 01:26:28;;;;;;;91.03;2.97;;;26.10;29.20;;;;;;4993805;28;20437;-78
2023/06/30 01:28:54;;;;;;;91.03;2.97;;;25.80;30.00;;;;;;4993780;28;20431;-78
2023/06/30 01:31:20;;;;;;;90.30;2.70;;;25.80;30.00;;;;;;4994474;28;20280;-79
2023/06/30 01:33:46;;;;;;;91.10;2.90;;;25.80;30.00;;;;;;4994245;28;20415;-79
2023/06/30 01:36:12;;;;;;;90.67;2.97;;;25.80;30.20;;;;;;4993777;28;20433;-78
2023/06/30 01:38:37;;;;;;;91.33;3.37;;;25.70;30.00;;;;;;4992625;28;20185;-79
2023/06/30 01:41:06;;;;;;;90.77;2.93;;;25.70;30.00;;;;;;4992954;28;20196;-77
2023/06/30 01:43:33;;;;;;;90.97;2.73;;;25.70;30.60;;;;;;4992473;28;20636;-78
2023/06/30 01:45:59;;;;;;;90.90;3.20;;;25.10;30.10;;;;;;4993366;28;20468;-78
2023/06/30 01:48:25;;;;;;;91.37;3.30;;;25.80;30.70;;;;;;4993852;28;20444;-78
2023/06/30 01:50:53;;;;;;;91.30;2.80;;;25.70;30.30;;;;;;4993422;28;20461;-77
2023/06/30 01:53:19;;;;;;;91.23;2.87;;;25.70;30.50;;;;;;4993574;28;20409;-78
2023/06/30 01:55:48;;;;;;;92.57;3.50;;;25.70;31.10;;;;;;4993472;28;20445;-77
2023/06/30 01:58:16;;;;;;;91.17;2.80;;;25.60;30.80;;;;;;4993414;28;20181;-77
2023/06/30 02:00:42;;;;;;;92.30;3.20;;;25.50;31.40;;;;;;4993505;28;20413;-77
2023/06/30 02:03:07;;;;;;;91.27;3.00;;;25.50;31.50;;;;;;4993664;28;20417;-78
2023/06/30 02:05:33;;;;;;;92.77;3.40;;;25.50;32.00;;;;;;4992716;28;20295;-77
2023/06/30 02:07:58;;;;;;;91.60;2.83;;;25.50;31.70;;;;;;4993302;28;20181;-78
2023/06/30 02:10:25;;;;;;;91.53;2.77;;;25.60;31.70;;;;;;4993092;28;20305;-77
2023/06/30 02:12:50;;;;;;;91.80;3.13;;;25.60;31.80;;;;;;4993192;28;20304;-78
2023/06/30 02:15:16;;;;;;;91.37;2.90;;;25.50;31.90;;;;;;4993763;28;20428;-77
2023/06/30 02:17:41;;;;;;;91.57;3.00;;;25.40;31.70;;;;;;4996452;28;20586;-78
2023/06/30 02:20:08;;;;;;;95.30;2.90;;;25.30;32.70;;;;;;4993337;28;20221;-79
2023/06/30 02:22:34;;;;;;;92.60;2.80;;;25.40;32.60;;;;;;4993320;28;20174;-79
2023/06/30 02:25:00;;;;;;;91.33;2.80;;;25.50;32.10;;;;;;4991594;28;20491;-79
2023/06/30 02:27:27;;;;;;;92.07;2.93;;;25.60;32.30;;;;;;4993330;28;20416;-79
2023/06/30 02:29:52;;;;;;;92.07;3.10;;;25.70;32.00;;;;;;4993279;28;20463;-80
2023/06/30 02:32:18;;;;;;;91.30;2.87;;;25.80;31.20;;;;;;4993219;28;20457;-79
2023/06/30 02:34:44;;;;;;;93.07;3.70;;;25.90;31.30;;;;;;4992141;28;20190;-79
2023/06/30 02:37:09;;;;;;;91.37;2.47;;;25.90;31.00;;;;;;4992980;28;20539;-79
2023/06/30 02:39:35;;;;;;;92.03;2.83;;;25.80;31.40;;;;;;4993664;28;20173;-81
2023/06/30 02:42:00;;;;;;;91.43;2.77;;;25.80;30.00;;;;;;4993729;28;20181;-79
2023/06/30 02:44:26;;;;;;;92.50;2.77;;;25.80;30.60;;;;;;4992666;28;20184;-79
2023/06/30 02:46:51;;;;;;;92.17;3.07;;;25.90;30.00;;;;;;4992770;28;20174;-79
2023/06/30 02:49:17;;;;;;;93.07;3.10;;;25.80;31.70;;;;;;4993223;28;20585;-79
2023/06/30 02:51:43;;;;;;;91.83;2.67;;;25.80;32.00;;;;;;4992545;28;20194;-79
2023/06/30 02:54:08;;;;;;;92.90;3.10;;;25.70;31.90;;;;;;4993018;28;20535;-79
2023/06/30 02:56:34;;;;;;;91.80;2.80;;;25.50;32.20;;;;;;4992230;28;20243;-79
2023/06/30 02:58:59;;;;;;;92.77;3.40;;;25.50;32.30;;;;;;4991571;28;20176;-79
2023/06/30 03:01:25;;;;;;;92.87;2.83;;;25.50;31.80;;;;;;4992795;28;20177;-79
2023/06/30 03:03:52;;;;;;;92.50;3.07;;;25.40;31.20;;;;;;4992349;28;20178;-79
2023/06/30 03:06:17;;;;;;;91.60;2.50;;;25.40;31.60;;;;;;4991503;28;20600;-80
2023/06/30 03:08:43;;;;;;;91.77;2.57;;;25.10;30.20;;;;;;4992171;28;20418;-78
2023/06/30 03:11:09;;;;;;;91.30;2.53;;;24.90;30.80;;;;;;4991992;28;20271;-78
2023/06/30 03:13:34;;;;;;;92.90;3.10;;;24.90;30.70;;;;;;4992305;28;20217;-79
2023/06/30 03:16:00;;;;;;;92.47;2.43;;;24.90;30.60;;;;;;4991757;28;20208;-79
2023/06/30 03:18:25;;;;;;;91.20;2.60;;;24.90;30.90;;;;;;4991934;28;20185;-78
2023/06/30 03:20:51;;;;;;;91.97;2.97;;;24.50;31.10;;;;;;4992037;28;20208;-79
2023/06/30 03:23:19;;;;;;;91.47;2.50;;;24.20;32.50;;;;;;4992064;28;20177;-78
2023/06/30 03:25:44;;;;;;;98.90;3.23;;;24.30;32.30;;;;;;4991553;28;20610;-78
2023/06/30 03:28:10;;;;;;;94.70;3.40;;;24.50;31.80;;;;;;4991882;28;20413;-79
2023/06/30 03:30:35;;;;;;;94.87;3.00;;;24.60;32.50;;;;;;4991737;28;20255;-78
2023/06/30 03:33:01;;;;;;;91.83;3.00;;;25.00;31.60;;;;;;4991994;28;20166;-78
2023/06/30 03:35:27;;;;;;;93.67;3.33;;;24.90;31.80;;;;;;4991442;28;20193;-79
2023/06/30 03:37:52;;;;;;;91.97;2.60;;;24.90;32.10;;;;;;4991842;28;20173;-79
2023/06/30 03:40:18;;;;;;;92.30;2.90;;;24.90;31.50;;;;;;4991954;28;20200;-80
2023/06/30 03:42:44;;;;;;;95.77;3.10;;;24.80;32.00;;;;;;4991874;28;20177;-79
2023/06/30 03:45:10;;;;;;;91.57;2.60;;;24.90;32.80;;;;;;4991494;28;20189;-79
2023/06/30 03:47:35;;;;;;;96.23;3.77;;;24.60;32.40;;;;;;4991893;28;20166;-79
2023/06/30 03:50:01;;;;;;;92.57;2.97;;;24.60;32.00;;;;;;4991717;28;20413;-79
2023/06/30 03:52:26;;;;;;;93.47;2.70;;;24.40;32.00;;;;;;4991810;28;20409;-80
2023/06/30 03:54:52;;;;;;;91.77;2.60;;;24.10;32.80;;;;;;4991504;28;20197;-79
2023/06/30 03:57:17;;;;;;;93.30;3.00;;;23.80;34.90;;;;;;4991543;28;20574;-79
2023/06/30 03:59:43;;;;;;;92.10;2.80;;;23.50;36.10;;;;;;4991827;28;20169;-79
2023/06/30 04:02:09;;;;;;;93.60;2.80;;;23.20;37.30;;;;;;4991670;28;20252;-80
2023/06/30 04:04:34;;;;;;;93.27;2.83;;;23.20;37.10;;;;;;4992786;28;20204;-79
2023/06/30 04:07:00;;;;;;;92.80;2.97;;;23.60;36.90;;;;;;4995329;28;20207;-79
2023/06/30 04:09:25;;;;;;;92.47;3.13;;;24.20;35.20;;;;;;4995358;28;20252;-79
2023/06/30 04:11:51;;;;;;;92.27;2.83;;;24.50;34.70;;;;;;4995282;28;20699;-80
2023/06/30 04:14:17;;;;;;;91.90;2.83;;;24.70;33.90;;;;;;4995302;28;20523;-80
2023/06/30 04:16:43;;;;;;;92.30;3.20;;;24.70;33.70;;;;;;4994926;28;20431;-79
2023/06/30 04:19:08;;;;;;;92.17;2.73;;;24.70;34.50;;;;;;4995225;28;20253;-78
2023/06/30 04:21:34;;;;;;;93.60;3.33;;;24.80;33.60;;;;;;4995522;28;20185;-78
2023/06/30 04:24:00;;;;;;;93.20;2.73;;;24.60;34.30;;;;;;4994867;28;20189;-78
2023/06/30 04:26:25;;;;;;;92.07;2.63;;;24.90;33.80;;;;;;4994775;28;20194;-80
2023/06/30 04:28:51;;;;;;;91.70;2.47;;;24.80;34.50;;;;;;4995182;28;20178;-79
2023/06/30 04:31:17;;;;;;;92.90;3.27;;;24.80;35.70;;;;;;4994972;28;20200;-79
2023/06/30 04:33:42;;;;;;;92.70;3.37;;;24.70;37.70;;;;;;4999743;28;20173;-80
2023/06/30 04:36:08;;;;;;;94.00;3.87;;;24.60;42.00;;;;;;5001605;28;20443;-80
2023/06/30 04:38:34;;;;;;;92.77;2.80;;;24.40;44.90;;;;;;4999298;28;20170;-80
2023/06/30 04:41:00;;;;;;;102.37;3.10;;;24.20;45.60;;;;;;4999685;28;20201;-81
2023/06/30 04:43:25;;;;;;;94.47;3.20;;;24.10;48.10;;;;;;4999457;28;20412;-80
2023/06/30 04:45:51;;;;;;;93.90;3.13;;;23.90;48.80;;;;;;4997772;28;20675;-80
2023/06/30 04:48:17;;;;;;;95.07;3.00;;;23.80;49.90;;;;;;4998113;28;20182;-80
2023/06/30 04:50:43;;;;;;;94.57;3.27;;;23.80;51.30;;;;;;4997409;28;20285;-81
2023/06/30 04:53:08;;;;;;;93.30;2.90;;;23.70;51.00;;;;;;5000444;28;20259;-81
2023/06/30 04:55:34;;;;;;;94.07;2.93;;;23.80;52.20;;;;;;5003480;28;20852;-82
2023/06/30 04:57:59;;;;;;;94.87;3.23;;;23.80;52.10;;;;;;5002786;28;20173;-80
2023/06/30 05:00:26;;;;;;;94.13;2.80;;;23.80;52.40;;;;;;4999877;28;20645;-80
2023/06/30 05:02:52;;;;;;;95.67;3.17;;;23.70;52.60;;;;;;4998766;28;20266;-80
2023/06/30 05:05:17;;;;;;;95.07;2.97;;;23.60;53.20;;;;;;4998207;28;20957;-80
2023/06/30 05:07:43;;;;;;;94.37;2.70;;;23.70;52.30;;;;;;4995030;28;20253;-80
2023/06/30 05:10:09;;;;;;;94.63;2.97;;;23.70;53.80;;;;;;4995743;28;20217;-80
2023/06/30 05:12:35;;;;;;;96.03;3.57;;;23.70;53.30;;;;;;4996789;28;20294;-80
2023/06/30 05:15:01;;;;;;;95.17;3.20;;;23.70;53.50;;;;;;4995920;28;20435;-80
2023/06/30 05:17:27;;;;;;;94.97;2.80;;;23.70;53.50;;;;;;4996246;28;20425;-80
2023/06/30 05:19:52;;;;;;;95.73;3.10;;;23.80;52.70;;;;;;4996613;28;20479;-81
2023/06/30 05:22:18;;;;;;;95.17;2.67;;;23.90;52.50;;;;;;4997031;28;20181;-80
2023/06/30 05:24:43;;;;;;;95.47;3.00;;;23.90;52.50;;;;;;4996211;28;20282;-80
2023/06/30 05:27:09;;;;;;;96.33;3.47;;;24.00;52.60;;;;;;4995785;28;20547;-80
2023/06/30 05:29:35;;;;;;;95.70;2.93;;;23.90;52.30;;;;;;4997227;28;20202;-81
2023/06/30 05:32:00;;;;;;;95.77;2.73;;;23.70;51.30;;;;;;4996302;28;20246;-80
2023/06/30 05:34:26;;;;;;;95.87;3.10;;;23.30;51.50;;;;;;4995495;28;20547;-80
2023/06/30 05:36:52;;;;;;;96.60;3.00;;;23.20;53.90;;;;;;4995380;28;20219;-80
2023/06/30 05:39:17;;;;;;;97.17;2.90;;;23.40;54.80;;;;;;4995702;28;20176;-79
2023/06/30 05:41:43;;;;;;;96.40;3.20;;;23.50;53.60;;;;;;4994769;28;20186;-80
2023/06/30 05:44:09;;;;;;;95.70;2.53;;;23.70;54.40;;;;;;4995695;28;20183;-79
2023/06/30 05:46:37;;;;;;;96.40;3.10;;;23.80;52.90;;;;;;4995220;28;20200;-80
2023/06/30 05:49:05;;;;;;;97.80;3.00;;;23.90;52.60;;;;;;4995488;28;20991;-79
2023/06/30 05:51:32;;;;;;;95.50;2.80;;;24.00;52.60;;;;;;4996154;28;20830;-80
2023/06/30 05:53:58;;;;;;;97.10;3.70;;;23.90;53.20;;;;;;4995881;28;20405;-80
2023/06/30 05:56:23;;;;;;;95.77;2.80;;;23.80;53.40;;;;;;4995695;28;20567;-81
2023/06/30 05:58:49;;;;;;;96.30;3.17;;;23.80;54.00;;;;;;4996535;28;20174;-80
2023/06/30 06:01:14;;;;;;;96.27;3.00;;;23.70;53.60;;;;;;4995461;28;20533;-80
2023/06/30 06:03:40;;;;;;;97.30;2.97;;;23.70;54.30;;;;;;4997105;28;20254;-80
2023/06/30 06:06:05;;;;;;;96.67;3.07;;;23.80;53.80;;;;;;4995210;28;20214;-80
2023/06/30 06:08:31;;;;;;;96.53;2.90;;;23.80;53.80;;;;;;4996582;28;20547;-79
2023/06/30 06:10:56;;;;;;;96.30;2.90;;;24.00;52.40;;;;;;4996169;28;20200;-80
2023/06/30 06:13:36;;;;;;;96.57;2.83;;;24.00;53.30;;;;;;4996692;28;20174;-80
2023/06/30 06:16:03;;;;;;;97.10;3.13;;;24.10;51.50;;;;;;4995682;28;20207;-80
2023/06/30 06:18:29;;;;;;;96.73;3.00;;;23.90;51.30;;;;;;4995432;28;20948;-80
2023/06/30 06:20:56;;;;;;;97.20;2.90;;;24.00;50.10;;;;;;4996216;28;20496;-80
2023/06/30 06:23:21;;;;;;;97.77;3.27;;;24.00;51.70;;;;;;4994748;28;20188;-79
2023/06/30 06:25:48;;;;;;;98.03;3.40;;;24.00;52.80;;;;;;4995868;28;20433;-80
2023/06/30 06:28:14;;;;;;;97.60;3.37;;;24.00;52.90;;;;;;4995728;28;20558;-79
2023/06/30 06:30:39;;;;;;;97.27;2.80;;;24.10;49.80;;;;;;4994823;28;20446;-80
2023/06/30 06:33:05;;;;;;;97.33;2.90;;;24.10;49.70;;;;;;4996007;28;20222;-80
2023/06/30 06:35:30;;;;;;;96.97;2.70;;;23.80;50.50;;;;;;4995607;28;20198;-80
2023/06/30 06:37:56;;;;;;;96.97;2.53;;;23.40;53.20;;;;;;4995876;28;20221;-80
2023/06/30 06:40:21;;;;;;;97.30;2.97;;;22.90;55.70;;;;;;4995728;28;20264;-80
2023/06/30 06:42:47;;;;;;;97.60;2.97;;;22.50;61.10;;;;;;4994679;28;20576;-81
2023/06/30 06:45:13;;;;;;;97.93;3.10;;;22.80;60.40;;;;;;4995582;28;20224;-79
2023/06/30 06:48:16;;;;;;;100.27;3.40;;;22.20;61.60;;;;;;4995787;28;20176;-80
2023/06/30 06:50:42;;;;;;;97.47;2.80;;;22.30;62.30;;;;;;4995743;28;20592;-80
2023/06/30 06:53:07;;;;;;;97.40;2.83;;;22.00;64.60;;;;;;4996862;28;20782;-80
2023/06/30 06:55:33;;;;;;;97.07;2.67;;;22.10;61.70;;;;;;4995985;28;20438;-80
2023/06/30 06:57:59;;;;;;;97.63;2.93;;;21.90;65.40;;;;;;4996396;28;20638;-81
2023/06/30 07:00:24;;;;;;;97.97;3.10;;;21.60;65.10;;;;;;4995866;28;20206;-80
2023/06/30 07:02:51;;;;;;;97.73;2.90;;;21.50;68.30;;;;;;4995152;28;20177;-80
2023/06/30 07:05:17;;;;;;;97.87;3.20;;;21.70;66.10;;;;;;4996335;28;20209;-81
2023/06/30 07:07:43;;;;;;;97.60;3.00;;;22.40;61.50;;;;;;4997418;28;20923;-80
2023/06/30 07:10:09;;;;;;;97.27;2.53;;;22.90;59.10;;;;;;4997129;28;20183;-80
2023/06/30 07:12:34;;;;;;;98.60;3.20;;;23.10;57.50;;;;;;4996540;28;20203;-79
2023/06/30 07:15:00;;;;;;;97.90;3.07;;;23.30;57.70;;;;;;4994568;28;20204;-80
2023/06/30 07:17:25;;;;;;;97.90;3.07;;;23.20;55.40;;;;;;4994344;28;20176;-80
2023/06/30 07:19:51;;;;;;;98.03;3.20;;;23.00;56.60;;;;;;4994592;28;20170;-80
2023/06/30 07:22:16;;;;;;;98.37;3.40;;;23.20;56.00;;;;;;4995538;28;20205;-80
2023/06/30 07:24:42;;;;;;;99.60;3.27;;;23.40;56.30;;;;;;4994312;28;20198;-81
2023/06/30 07:27:08;;;;;;;98.30;2.87;;;23.60;55.60;;;;;;4995342;28;20193;-81
2023/06/30 07:29:33;;;;;;;99.17;3.20;;;23.60;55.60;;;;;;4994738;28;20190;-80
2023/06/30 07:31:59;;;;;;;98.40;3.13;;;23.80;55.50;;;;;;4995744;28;20289;-80
2023/06/30 07:34:25;;;;;;;99.27;3.27;;;23.80;55.00;;;;;;4996162;28;20174;-82
2023/06/30 07:36:51;;;;;;;98.93;3.20;;;23.90;53.70;;;;;;4995709;28;20585;-80
2023/06/30 07:39:17;;;;;;;98.93;3.17;;;23.60;53.60;;;;;;4997177;28;20416;-80
2023/06/30 07:41:42;;;;;;;99.13;2.60;;;23.70;54.20;;;;;;5000287;28;20185;-80
2023/06/30 07:44:11;;;;;;;98.67;3.00;;;23.80;56.10;;;;;;5000019;28;20411;-81
2023/06/30 07:46:37;;;;;;;99.20;3.17;;;23.80;53.30;;;;;;4999620;28;20194;-80
2023/06/30 07:49:03;;;;;;;98.53;2.80;;;23.90;53.10;;;;;;4999962;28;20518;-80
2023/06/30 07:51:30;;;;;;;100.60;2.93;;;24.00;50.00;;;;;;4999932;28;20461;-80
2023/06/30 07:53:56;;;;;;;98.70;2.83;;;24.10;51.30;;;;;;5000485;28;20464;-80
2023/06/30 07:56:21;;;;;;;107.97;4.37;;;24.10;51.60;;;;;;5000414;28;20433;-80
2023/06/30 07:58:47;;;;;;;102.67;4.10;;;23.70;53.40;;;;;;4999695;28;20195;-80
2023/06/30 08:01:13;;;;;;;99.60;3.20;;;23.30;56.10;;;;;;4998926;28;20648;-80
2023/06/30 08:03:39;;;;;;;98.80;2.90;;;22.20;61.30;;;;;;4998844;28;20172;-80
2023/06/30 08:06:05;;;;;;;98.50;2.73;;;22.10;60.70;;;;;;4996130;28;20493;-80
2023/06/30 08:08:33;;;;;;;99.07;3.00;;;21.90;64.40;;;;;;4998575;28;20174;-80
2023/06/30 08:10:59;;;;;;;98.50;2.87;;;22.30;64.20;;;;;;4998333;28;20196;-80
2023/06/30 08:13:26;;;;;;;100.00;3.87;;;22.70;62.10;;;;;;4999636;28;20782;-79
2023/06/30 08:15:51;;;;;;;99.00;3.23;;;23.30;59.40;;;;;;4998809;28;20196;-80
2023/06/30 08:18:17;;;;;;;98.40;2.70;;;23.60;52.70;;;;;;4999884;28;20411;-80
2023/06/30 08:20:42;;;;;;;98.83;2.90;;;23.80;55.00;;;;;;5013344;23;20295;-74
2023/06/30 08:23:10;;;;;;;99.00;2.83;;;24.20;50.90;;;;;;4987631;28;20203;-74
2023/06/30 08:25:36;;;;;;;98.43;2.60;;;23.80;51.60;;;;;;4995511;28;20172;-73
2023/06/30 08:28:02;;;;;;;98.60;2.80;;;24.00;51.80;;;;;;4995502;28;20401;-73
2023/06/30 08:30:27;;;;;;;98.63;3.00;;;24.40;48.90;;;;;;4995479;28;20405;-73
2023/06/30 08:32:54;;;;;;;99.33;3.47;;;24.50;49.70;;;;;;4995267;28;20238;-74
2023/06/30 08:35:19;;;;;;;99.37;3.00;;;24.10;50.60;;;;;;4994913;28;20170;-73
2023/06/30 08:37:45;;;;;;;98.87;2.77;;;23.90;50.10;;;;;;4995202;28;20404;-73
2023/06/30 08:40:12;;;;;;;99.13;3.03;;;23.80;55.50;;;;;;4995248;28;20180;-74
2023/06/30 08:42:42;;;;;;;98.10;2.47;;;24.20;50.10;;;;;;4995087;28;20192;-74
2023/06/30 08:45:09;;;;;;;99.30;3.10;;;24.50;49.10;;;;;;4995055;28;20408;-73
2023/06/30 08:47:37;;;;;;;98.93;3.27;;;24.50;48.40;;;;;;4994931;28;20927;-73
2023/06/30 08:50:04;;;;;;;100.27;3.77;;;24.60;49.80;;;;;;4994761;28;20452;-73
2023/06/30 08:52:30;;;;;;;98.90;3.03;;;24.60;50.40;;;;;;4994821;28;20487;-73
2023/06/30 08:54:55;;;;;;;99.37;3.20;;;24.30;47.90;;;;;;4994748;28;20827;-73
2023/06/30 08:57:21;;;;;;;99.27;3.30;;;23.70;52.00;;;;;;4994765;28;20529;-73
2023/06/30 08:59:47;;;;;;;99.80;3.33;;;23.30;53.00;;;;;;4994916;28;20170;-73
2023/06/30 09:02:13;;;;;;;98.47;2.80;;;23.30;53.40;;;;;;4995077;28;20268;-73
2023/06/30 09:04:40;;;;;;;98.90;3.10;;;24.00;55.20;;;;;;4994388;28;20232;-73
2023/06/30 09:07:09;;;;;;;99.30;3.00;;;24.70;52.00;;;;;;4994785;28;20419;-73
2023/06/30 09:09:42;;;;;;;99.33;3.03;;;24.80;49.80;;;;;;4994552;28;20431;-73
2023/06/30 09:12:09;;;;;;;99.07;3.27;;;24.40;47.50;;;;;;4994284;28;20472;-73
2023/06/30 09:14:40;;;;;;;98.87;3.00;;;24.70;46.50;;;;;;4994496;28;20424;-73
2023/06/30 09:17:06;;;;;;;99.17;3.00;;;24.70;45.20;;;;;;4994634;28;20546;-73
2023/06/30 09:19:32;;;;;;;98.30;2.97;;;24.00;46.20;;;;;;4994354;28;20757;-73
2023/06/30 09:21:58;;;;;;;98.47;2.80;;;24.00;49.80;;;;;;4994222;28;20448;-73
2023/06/30 09:24:23;;;;;;;99.33;3.00;;;24.30;51.90;;;;;;4994337;28;20220;-73
2023/06/30 09:26:52;;;;;;;100.90;3.37;;;24.30;48.20;;;;;;4994246;28;20417;-73
2023/06/30 09:29:21;;;;;;;98.27;2.77;;;24.10;47.70;;;;;;4994445;28;20180;-73
2023/06/30 09:31:51;;;;;;;97.97;2.63;;;23.10;52.70;;;;;;4994386;28;20918;-73
2023/06/30 09:34:19;;;;;;;99.27;3.23;;;22.70;55.30;;;;;;4994126;28;20412;-73
2023/06/30 09:36:49;;;;;;;99.03;3.60;;;22.80;56.80;;;;;;4994216;28;20412;-73
2023/06/30 09:39:15;;;;;;;97.80;2.80;;;23.30;55.00;;;;;;4994166;28;20405;-73
2023/06/30 09:41:51;;;;;;;100.70;3.77;;;23.80;51.70;;;;;;4993921;28;20438;-74
2023/06/30 09:44:20;;;;;;;98.27;2.97;;;23.70;52.40;;;;;;4994097;28;20420;-74
2023/06/30 09:46:52;;;;;;;98.20;3.00;;;24.10;49.70;;;;;;4993838;28;20500;-74
2023/06/30 09:49:25;;;;;;;99.07;3.33;;;23.90;54.10;;;;;;4994151;28;20401;-74
2023/06/30 09:51:51;;;;;;;98.47;3.03;;;24.30;49.70;;;;;;4993870;28;20464;-74
2023/06/30 09:54:18;;;;;;;98.33;3.07;;;24.50;47.50;;;;;;4993871;28;20452;-74
2023/06/30 09:56:45;;;;;;;97.90;2.60;;;24.50;48.50;;;;;;4993488;28;20412;-72
2023/06/30 09:59:12;;;;;;;100.00;2.97;;;24.70;47.20;;;;;;4993789;28;20412;-71
2023/06/30 10:01:39;;;;;;;97.97;2.60;;;24.50;48.80;;;;;;4992962;28;20909;-72
2023/06/30 10:04:05;;;;;;;99.70;3.40;;;24.50;49.10;;;;;;4992381;28;20425;-72
2023/06/30 10:06:31;;;;;;;100.40;3.53;;;24.30;49.60;;;;;;4993305;28;20664;-71
2023/06/30 10:08:58;;;;;;;98.53;3.40;;;24.30;49.70;;;;;;4993624;28;20185;-72
2023/06/30 10:11:25;;;;;;;99.83;3.87;;;24.40;47.00;;;;;;4993383;28;20483;-73
2023/06/30 10:13:54;;;;;;;98.57;3.10;;;24.30;47.70;;;;;;4993403;28;20419;-73
2023/06/30 10:16:21;;;;;;;98.40;3.00;;;24.40;48.00;;;;;;4993276;28;20421;-73
2023/06/30 10:18:49;;;;;;;98.67;2.90;;;22.50;47.60;;;;;;4993162;28;20461;-72
2023/06/30 10:21:15;;;;;;;97.90;2.60;;;23.90;49.30;;;;;;4993262;28;20814;-73
2023/06/30 10:23:43;;;;;;;98.93;3.10;;;23.90;51.10;;;;;;4993358;28;20422;-73
2023/06/30 10:26:12;;;;;;;98.00;2.73;;;24.30;48.90;;;;;;4993153;28;20185;-72
2023/06/30 10:28:39;;;;;;;101.90;3.97;;;24.30;47.70;;;;;;4993018;28;20470;-72
2023/06/30 10:31:05;;;;;;;98.70;3.17;;;23.90;49.90;;;;;;4993091;28;20455;-72
2023/06/30 10:33:31;;;;;;;98.30;3.10;;;23.40;53.00;;;;;;4992994;28;20474;-72
2023/06/30 10:35:59;;;;;;;98.77;3.50;;;23.30;52.80;;;;;;4992937;28;20192;-72
2023/06/30 10:38:25;;;;;;;98.93;3.47;;;23.30;52.90;;;;;;4992731;28;20599;-72
2023/06/30 10:41:12;;;;;;;97.60;2.70;;;23.10;54.00;;;;;;4992668;28;20631;-75
2023/06/30 10:44:07;;;;;;;98.67;3.00;;;22.70;57.20;;;;;;4993036;28;20432;-74
2023/06/30 10:46:48;;;;;;;98.80;3.30;;;23.00;55.80;;;;;;4991641;28;20493;-76
2023/06/30 10:49:37;;;;;;;98.67;3.00;;;23.00;57.30;;;;;;4992773;28;20415;-75
2023/06/30 10:52:11;;;;;;;100.70;3.33;;;22.70;57.30;;;;;;4992771;28;20467;-76
2023/06/30 10:54:49;;;;;;;98.13;2.90;;;22.30;61.60;;;;;;4992623;28;20415;-76
2023/06/30 10:57:25;;;;;;;100.00;3.57;;;22.50;60.90;;;;;;4992824;28;20413;-74
2023/06/30 11:00:11;;;;;;;98.07;2.80;;;22.70;60.60;;;;;;4991371;28;20420;-74
2023/06/30 11:02:52;;;;;;;98.07;2.80;;;22.70;60.30;;;;;;4992490;28;20457;-74
2023/06/30 11:05:19;;;;;;;100.43;3.90;;;22.90;59.90;;;;;;4992504;28;20447;-74
2023/06/30 11:07:47;;;;;;;98.67;2.97;;;22.80;61.60;;;;;;4992638;28;20411;-75
2023/06/30 11:10:24;;;;;;;100.50;3.20;;;22.50;58.20;;;;;;4992500;28;20431;-75
2023/06/30 11:12:52;;;;;;;98.07;2.70;;;22.50;60.10;;;;;;4992551;28;20467;-74
2023/06/30 11:15:42;;;;;;;98.30;3.10;;;23.30;56.00;;;;;;4992169;28;20420;-74
2023/06/30 11:18:11;;;;;;;98.87;3.40;;;24.10;51.10;;;;;;4992896;28;20407;-74
2023/06/30 11:20:37;;;;;;;98.17;2.97;;;24.50;48.40;;;;;;4992300;28;20405;-74
2023/06/30 11:23:05;;;;;;;99.47;3.40;;;24.90;46.20;;;;;;4992655;28;20424;-74
2023/06/30 11:25:35;;;;;;;99.50;3.20;;;24.30;48.60;;;;;;4992448;28;20413;-74
2023/06/30 11:28:04;;;;;;;99.93;3.33;;;23.90;51.70;;;;;;4992471;28;20923;-74
2023/06/30 11:30:38;;;;;;;98.70;2.90;;;24.30;48.60;;;;;;4992277;28;20466;-75
2023/06/30 11:33:05;;;;;;;99.83;3.17;;;24.90;46.90;;;;;;4992145;28;20428;-75
2023/06/30 11:35:32;;;;;;;98.30;2.93;;;24.90;46.60;;;;;;4992132;28;20424;-74
2023/06/30 11:37:58;;;;;;;98.80;3.07;;;24.70;46.00;;;;;;4992330;28;20507;-74
2023/06/30 11:40:24;;;;;;;97.87;2.70;;;24.60;44.40;;;;;;4992313;28;20571;-74
2023/06/30 11:42:52;;;;;;;98.70;3.20;;;23.80;48.20;;;;;;4992260;28;20247;-74
2023/06/30 11:45:20;;;;;;;98.07;3.10;;;23.10;51.60;;;;;;4991995;28;20174;-73
2023/06/30 11:47:51;;;;;;;99.67;3.30;;;22.80;54.10;;;;;;4991995;28;20777;-73
2023/06/30 11:50:17;;;;;;;97.77;2.77;;;23.00;54.50;;;;;;4992222;28;20594;-73
2023/06/30 11:52:44;;;;;;;100.70;3.63;;;23.10;50.40;;;;;;4992102;28;20460;-74
2023/06/30 11:55:12;;;;;;;98.00;2.83;;;23.00;50.80;;;;;;4991924;28;20421;-74
2023/06/30 11:57:39;;;;;;;99.97;3.20;;;23.20;52.50;;;;;;4992243;28;20408;-73
2023/06/30 12:00:11;;;;;;;98.00;3.00;;;23.00;52.60;;;;;;4991772;28;20419;-73
2023/06/30 12:02:36;;;;;;;98.27;3.20;;;23.10;52.60;;;;;;4992112;28;20432;-73
2023/06/30 12:05:09;;;;;;;98.30;3.00;;;23.00;54.00;;;;;;4991735;28;20515;-74
2023/06/30 12:07:35;;;;;;;98.10;3.40;;;23.40;52.90;;;;;;4992145;28;20240;-73
2023/06/30 12:10:01;;;;;;;98.60;3.40;;;24.40;49.10;;;;;;4991957;28;20429;-73
2023/06/30 12:12:27;;;;;;;97.80;3.03;;;24.50;45.00;;;;;;4991856;28;20263;-73
2023/06/30 12:14:54;;;;;;;97.87;2.80;;;23.60;48.80;;;;;;4991579;28;20417;-73
2023/06/30 12:17:20;;;;;;;100.57;3.90;;;23.50;49.40;;;;;;4992093;28;20416;-72
2023/06/30 12:19:45;;;;;;;97.60;2.90;;;23.50;49.40;;;;;;4991927;28;20781;-73
2023/06/30 12:22:14;;;;;;;97.47;3.00;;;23.30;49.30;;;;;;4992062;28;20226;-73
2023/06/30 12:24:42;;;;;;;98.27;3.17;;;23.80;48.00;;;;;;4991662;28;20217;-73
2023/06/30 12:27:08;;;;;;;97.47;3.00;;;24.00;46.70;;;;;;4995547;28;20413;-73
2023/06/30 12:29:35;;;;;;;97.80;3.17;;;23.60;49.50;;;;;;4995421;28;20417;-74
2023/06/30 12:32:11;;;;;;;97.73;3.20;;;24.60;44.90;;;;;;4994119;28;20479;-73
2023/06/30 12:34:37;;;;;;;98.00;3.10;;;24.70;43.80;;;;;;4995356;28;20908;-73
2023/06/30 12:37:03;;;;;;;98.17;3.20;;;25.10;45.80;;;;;;4994007;28;20456;-74